sensor_id;sensor_type;location;lat;lon;timestamp;temperature;humidity
728;DHT22;347;48.780;9.158;2023-03-01T00:01:29;6.20;16.20
728;DHT22;347;48.780;9.158;2023-03-01T00:03:56;6.20;16.40
728;DHT22;347;48.780;9.158;2023-03-01T00:06:22;6.10;16.30
728;DHT22;347;48.780;9.158;2023-03-01T00:08:48;6.10;16.40
728;DHT22;347;48.780;9.158;2023-03-01T00:11:28;6.10;16.60
728;DHT22;347;48.780;9.158;2023-03-01T00:13:56;6.00;16.70
728;DHT22;347;48.780;9.158;2023-03-01T00:16:28;6.00;16.70
728;DHT22;347;48.780;9.158;2023-03-01T00:18:55;6.00;16.70
728;DHT22;347;48.780;9.158;2023-03-01T00:21:21;6.00;16.50
728;DHT22;347;48.780;9.158;2023-03-01T00:23:47;6.00;16.70
728;DHT22;347;48.780;9.158;2023-03-01T00:26:17;5.90;16.80
728;DHT22;347;48.780;9.158;2023-03-01T00:28:44;5.90;16.80
728;DHT22;347;48.780;9.158;2023-03-01T00:31:16;5.90;16.70
728;DHT22;347;48.780;9.158;2023-03-01T00:33:42;6.00;16.80
728;DHT22;347;48.780;9.158;2023-03-01T00:36:10;6.00;16.80
728;DHT22;347;48.780;9.158;2023-03-01T00:38:40;6.00;16.70
728;DHT22;347;48.780;9.158;2023-03-01T00:41:09;6.00;16.60
728;DHT22;347;48.780;9.158;2023-03-01T00:43:35;6.00;16.70
728;DHT22;347;48.780;9.158;2023-03-01T00:46:04;6.10;16.70
728;DHT22;347;48.780;9.158;2023-03-01T00:48:31;6.00;16.50
728;DHT22;347;48.780;9.158;2023-03-01T00:50:57;6.10;16.60
728;DHT22;347;48.780;9.158;2023-03-01T00:53:28;6.00;16.70
728;DHT22;347;48.780;9.158;2023-03-01T00:55:57;6.00;16.60
728;DHT22;347;48.780;9.158;2023-03-01T00:58:22;5.90;16.80
728;DHT22;347;48.780;9.158;2023-03-01T01:00:48;5.90;16.90
728;DHT22;347;48.780;9.158;2023-03-01T01:03:13;5.90;17.20
728;DHT22;347;48.780;9.158;2023-03-01T01:05:39;5.90;17.40
728;DHT22;347;48.780;9.158;2023-03-01T01:08:05;5.90;17.20
728;DHT22;347;48.780;9.158;2023-03-01T01:10:32;6.00;17.00
728;DHT22;347;48.780;9.158;2023-03-01T01:12:58;5.80;17.30
728;DHT22;347;48.780;9.158;2023-03-01T01:15:26;5.80;17.30
728;DHT22;347;48.780;9.158;2023-03-01T01:17:52;5.80;17.30
728;DHT22;347;48.780;9.158;2023-03-01T01:20:18;5.70;17.30
728;DHT22;347;48.780;9.158;2023-03-01T01:22:43;5.70;17.50
728;DHT22;347;48.780;9.158;2023-03-01T01:25:09;5.60;17.30
728;DHT22;347;48.780;9.158;2023-03-01T01:27:36;5.60;17.60
728;DHT22;347;48.780;9.158;2023-03-01T01:30:02;5.50;17.60
728;DHT22;347;48.780;9.158;2023-03-01T01:32:28;5.50;17.70
728;DHT22;347;48.780;9.158;2023-03-01T01:34:54;5.40;17.60
728;DHT22;347;48.780;9.158;2023-03-01T01:37:20;5.40;18.20
728;DHT22;347;48.780;9.158;2023-03-01T01:39:45;5.40;17.90
728;DHT22;347;48.780;9.158;2023-03-01T01:42:15;5.40;17.80
728;DHT22;347;48.780;9.158;2023-03-01T01:44:45;5.40;17.80
728;DHT22;347;48.780;9.158;2023-03-01T01:47:20;5.40;18.00
728;DHT22;347;48.780;9.158;2023-03-01T01:49:50;5.40;18.00
728;DHT22;347;48.780;9.158;2023-03-01T01:52:30;5.30;18.40
728;DHT22;347;48.780;9.158;2023-03-01T01:55:04;5.40;18.90
728;DHT22;347;48.780;9.158;2023-03-01T01:57:41;5.10;18.40
728;DHT22;347;48.780;9.158;2023-03-01T02:00:20;4.70;19.60
728;DHT22;347;48.780;9.158;2023-03-01T02:02:48;4.90;19.40
728;DHT22;347;48.780;9.158;2023-03-01T02:08:02;5.00;19.20
728;DHT22;347;48.780;9.158;2023-03-01T02:10:28;5.10;18.80
728;DHT22;347;48.780;9.158;2023-03-01T02:12:55;5.10;18.90
728;DHT22;347;48.780;9.158;2023-03-01T02:15:22;5.10;18.90
728;DHT22;347;48.780;9.158;2023-03-01T02:17:48;5.10;18.90
728;DHT22;347;48.780;9.158;2023-03-01T02:20:29;5.10;19.40
728;DHT22;347;48.780;9.158;2023-03-01T02:22:58;5.20;18.80
728;DHT22;347;48.780;9.158;2023-03-01T02:25:47;5.20;18.90
728;DHT22;347;48.780;9.158;2023-03-01T02:30:48;5.30;18.30
728;DHT22;347;48.780;9.158;2023-03-01T02:33:36;5.30;18.40
728;DHT22;347;48.780;9.158;2023-03-01T02:36:08;5.20;18.30
728;DHT22;347;48.780;9.158;2023-03-01T02:38:35;5.20;18.50
728;DHT22;347;48.780;9.158;2023-03-01T02:41:02;5.10;18.60
728;DHT22;347;48.780;9.158;2023-03-01T02:43:31;5.10;18.50
728;DHT22;347;48.780;9.158;2023-03-01T02:46:06;5.10;18.60
728;DHT22;347;48.780;9.158;2023-03-01T02:48:47;5.10;18.70
728;DHT22;347;48.780;9.158;2023-03-01T02:51:38;5.10;18.60
728;DHT22;347;48.780;9.158;2023-03-01T02:54:25;5.10;18.80
728;DHT22;347;48.780;9.158;2023-03-01T02:56:52;5.10;18.80
728;DHT22;347;48.780;9.158;2023-03-01T02:59:21;5.10;18.80
728;DHT22;347;48.780;9.158;2023-03-01T03:01:47;5.10;18.80
728;DHT22;347;48.780;9.158;2023-03-01T03:04:16;5.20;18.90
728;DHT22;347;48.780;9.158;2023-03-01T03:06:44;5.20;18.80
728;DHT22;347;48.780;9.158;2023-03-01T03:09:10;5.10;18.70
728;DHT22;347;48.780;9.158;2023-03-01T03:11:36;5.10;18.70
728;DHT22;347;48.780;9.158;2023-03-01T03:14:02;5.10;19.10
728;DHT22;347;48.780;9.158;2023-03-01T03:16:28;5.10;19.20
728;DHT22;347;48.780;9.158;2023-03-01T03:18:55;5.10;19.10
728;DHT22;347;48.780;9.158;2023-03-01T03:21:33;5.10;19.10
728;DHT22;347;48.780;9.158;2023-03-01T03:23:59;5.20;19.20
728;DHT22;347;48.780;9.158;2023-03-01T03:26:24;5.20;19.00
728;DHT22;347;48.780;9.158;2023-03-01T03:28:50;5.20;19.00
728;DHT22;347;48.780;9.158;2023-03-01T03:31:16;5.20;18.90
728;DHT22;347;48.780;9.158;2023-03-01T03:33:42;5.30;18.90
728;DHT22;347;48.780;9.158;2023-03-01T03:36:08;5.30;18.70
728;DHT22;347;48.780;9.158;2023-03-01T03:38:39;5.30;18.60
728;DHT22;347;48.780;9.158;2023-03-01T03:41:06;5.30;18.80
728;DHT22;347;48.780;9.158;2023-03-01T03:43:35;5.30;19.00
728;DHT22;347;48.780;9.158;2023-03-01T03:46:02;5.20;18.70
728;DHT22;347;48.780;9.158;2023-03-01T03:48:33;5.20;19.00
728;DHT22;347;48.780;9.158;2023-03-01T03:50:59;5.10;19.50
728;DHT22;347;48.780;9.158;2023-03-01T03:53:27;5.20;19.40
728;DHT22;347;48.780;9.158;2023-03-01T03:55:53;5.20;19.40
728;DHT22;347;48.780;9.158;2023-03-01T03:58:21;5.20;19.40
728;DHT22;347;48.780;9.158;2023-03-01T04:00:50;5.20;19.00
728;DHT22;347;48.780;9.158;2023-03-01T04:03:17;5.10;19.20
728;DHT22;347;48.780;9.158;2023-03-01T04:05:44;5.10;19.50
728;DHT22;347;48.780;9.158;2023-03-01T04:08:10;5.20;19.70
728;DHT22;347;48.780;9.158;2023-03-01T04:10:42;5.20;19.60
728;DHT22;347;48.780;9.158;2023-03-01T04:13:13;5.20;19.80
728;DHT22;347;48.780;9.158;2023-03-01T04:15:39;5.20;19.60
728;DHT22;347;48.780;9.158;2023-03-01T04:18:06;5.00;19.80
728;DHT22;347;48.780;9.158;2023-03-01T04:20:34;5.00;20.10
728;DHT22;347;48.780;9.158;2023-03-01T04:23:06;5.10;19.70
728;DHT22;347;48.780;9.158;2023-03-01T04:25:45;5.20;19.70
728;DHT22;347;48.780;9.158;2023-03-01T04:28:11;5.30;19.40
728;DHT22;347;48.780;9.158;2023-03-01T04:30:38;5.30;19.20
728;DHT22;347;48.780;9.158;2023-03-01T04:33:09;5.30;19.30
728;DHT22;347;48.780;9.158;2023-03-01T04:35:36;5.30;19.30
728;DHT22;347;48.780;9.158;2023-03-01T04:38:03;5.30;19.50
728;DHT22;347;48.780;9.158;2023-03-01T04:40:29;5.40;19.30
728;DHT22;347;48.780;9.158;2023-03-01T04:42:54;5.50;19.20
728;DHT22;347;48.780;9.158;2023-03-01T04:45:20;5.50;19.00
728;DHT22;347;48.780;9.158;2023-03-01T04:47:46;5.60;19.10
728;DHT22;347;48.780;9.158;2023-03-01T04:50:15;5.60;18.90
728;DHT22;347;48.780;9.158;2023-03-01T04:52:41;5.50;18.90
728;DHT22;347;48.780;9.158;2023-03-01T04:55:08;5.60;18.80
728;DHT22;347;48.780;9.158;2023-03-01T04:57:34;5.60;19.00
728;DHT22;347;48.780;9.158;2023-03-01T04:59:59;5.70;18.90
728;DHT22;347;48.780;9.158;2023-03-01T05:02:25;5.80;18.90
728;DHT22;347;48.780;9.158;2023-03-01T05:04:51;5.90;18.80
728;DHT22;347;48.780;9.158;2023-03-01T05:07:17;5.90;18.80
728;DHT22;347;48.780;9.158;2023-03-01T05:09:48;6.00;18.70
728;DHT22;347;48.780;9.158;2023-03-01T05:12:14;6.00;18.40
728;DHT22;347;48.780;9.158;2023-03-01T05:14:41;6.10;18.50
728;DHT22;347;48.780;9.158;2023-03-01T05:17:07;6.10;18.20
728;DHT22;347;48.780;9.158;2023-03-01T05:19:33;6.20;18.10
728;DHT22;347;48.780;9.158;2023-03-01T05:21:59;6.20;17.80
728;DHT22;347;48.780;9.158;2023-03-01T05:24:31;6.20;17.90
728;DHT22;347;48.780;9.158;2023-03-01T05:26:57;6.20;18.00
728;DHT22;347;48.780;9.158;2023-03-01T05:29:24;6.30;17.70
728;DHT22;347;48.780;9.158;2023-03-01T05:31:55;6.30;17.70
728;DHT22;347;48.780;9.158;2023-03-01T05:34:25;6.30;17.60
728;DHT22;347;48.780;9.158;2023-03-01T05:36:53;6.30;17.40
728;DHT22;347;48.780;9.158;2023-03-01T05:39:23;6.20;17.70
728;DHT22;347;48.780;9.158;2023-03-01T05:41:58;6.20;17.80
728;DHT22;347;48.780;9.158;2023-03-01T05:44:24;6.10;18.00
728;DHT22;347;48.780;9.158;2023-03-01T05:46:51;6.10;18.30
728;DHT22;347;48.780;9.158;2023-03-01T05:49:17;6.00;18.20
728;DHT22;347;48.780;9.158;2023-03-01T05:51:47;6.00;18.30
728;DHT22;347;48.780;9.158;2023-03-01T05:54:13;6.00;20.80
728;DHT22;347;48.780;9.158;2023-03-01T05:56:39;6.00;19.30
728;DHT22;347;48.780;9.158;2023-03-01T05:59:05;6.00;18.90
728;DHT22;347;48.780;9.158;2023-03-01T06:01:35;6.00;18.90
728;DHT22;347;48.780;9.158;2023-03-01T06:04:01;6.00;18.70
728;DHT22;347;48.780;9.158;2023-03-01T06:06:27;5.90;18.60
728;DHT22;347;48.780;9.158;2023-03-01T06:08:55;5.90;18.60
728;DHT22;347;48.780;9.158;2023-03-01T06:11:21;5.80;18.60
728;DHT22;347;48.780;9.158;2023-03-01T06:13:47;5.80;18.60
728;DHT22;347;48.780;9.158;2023-03-01T06:16:14;5.80;18.70
728;DHT22;347;48.780;9.158;2023-03-01T06:18:40;5.80;21.30
728;DHT22;347;48.780;9.158;2023-03-01T06:21:07;5.70;21.60
728;DHT22;347;48.780;9.158;2023-03-01T06:23:33;5.60;20.70
728;DHT22;347;48.780;9.158;2023-03-01T06:26:04;5.50;20.00
728;DHT22;347;48.780;9.158;2023-03-01T06:28:30;5.50;19.90
728;DHT22;347;48.780;9.158;2023-03-01T06:30:55;5.60;19.70
728;DHT22;347;48.780;9.158;2023-03-01T06:33:21;5.60;19.50
728;DHT22;347;48.780;9.158;2023-03-01T06:35:50;5.60;19.60
728;DHT22;347;48.780;9.158;2023-03-01T06:38:15;5.50;19.80
728;DHT22;347;48.780;9.158;2023-03-01T06:40:44;5.60;19.70
728;DHT22;347;48.780;9.158;2023-03-01T06:43:10;5.60;19.50
728;DHT22;347;48.780;9.158;2023-03-01T06:45:37;5.60;19.70
728;DHT22;347;48.780;9.158;2023-03-01T06:48:04;5.60;19.70
728;DHT22;347;48.780;9.158;2023-03-01T06:50:30;5.60;19.60
728;DHT22;347;48.780;9.158;2023-03-01T06:52:56;5.60;19.70
728;DHT22;347;48.780;9.158;2023-03-01T06:55:22;5.50;19.90
728;DHT22;347;48.780;9.158;2023-03-01T06:57:47;5.40;20.30
728;DHT22;347;48.780;9.158;2023-03-01T07:00:14;5.40;19.80
728;DHT22;347;48.780;9.158;2023-03-01T07:02:39;5.40;19.80
728;DHT22;347;48.780;9.158;2023-03-01T07:05:06;5.50;19.50
728;DHT22;347;48.780;9.158;2023-03-01T07:07:31;5.50;19.70
728;DHT22;347;48.780;9.158;2023-03-01T07:09:57;5.40;19.90
728;DHT22;347;48.780;9.158;2023-03-01T07:12:23;5.50;19.50
728;DHT22;347;48.780;9.158;2023-03-01T07:14:49;5.60;19.30
728;DHT22;347;48.780;9.158;2023-03-01T07:17:14;5.60;19.20
728;DHT22;347;48.780;9.158;2023-03-01T07:19:40;5.70;19.00
728;DHT22;347;48.780;9.158;2023-03-01T07:22:06;5.80;19.10
728;DHT22;347;48.780;9.158;2023-03-01T07:24:33;5.80;19.20
728;DHT22;347;48.780;9.158;2023-03-01T07:26:59;5.80;18.60
728;DHT22;347;48.780;9.158;2023-03-01T07:29:25;5.80;20.20
728;DHT22;347;48.780;9.158;2023-03-01T07:31:50;5.80;21.30
728;DHT22;347;48.780;9.158;2023-03-01T07:34:16;5.90;20.70
728;DHT22;347;48.780;9.158;2023-03-01T07:36:42;6.00;20.10
728;DHT22;347;48.780;9.158;2023-03-01T07:39:09;6.00;19.00
728;DHT22;347;48.780;9.158;2023-03-01T07:41:35;5.90;18.70
728;DHT22;347;48.780;9.158;2023-03-01T07:44:01;5.90;18.70
728;DHT22;347;48.780;9.158;2023-03-01T07:46:26;5.80;18.80
728;DHT22;347;48.780;9.158;2023-03-01T07:48:52;5.80;18.90
728;DHT22;347;48.780;9.158;2023-03-01T07:51:18;5.70;18.80
728;DHT22;347;48.780;9.158;2023-03-01T07:53:46;5.70;18.80
728;DHT22;347;48.780;9.158;2023-03-01T07:56:14;5.60;19.30
728;DHT22;347;48.780;9.158;2023-03-01T07:58:41;5.40;19.70
728;DHT22;347;48.780;9.158;2023-03-01T08:01:10;5.20;20.00
728;DHT22;347;48.780;9.158;2023-03-01T08:03:37;5.30;19.90
728;DHT22;347;48.780;9.158;2023-03-01T08:06:05;5.30;19.80
728;DHT22;347;48.780;9.158;2023-03-01T08:08:31;5.40;19.60
728;DHT22;347;48.780;9.158;2023-03-01T08:10:58;5.30;19.60
728;DHT22;347;48.780;9.158;2023-03-01T08:13:24;5.40;19.80
728;DHT22;347;48.780;9.158;2023-03-01T08:15:49;5.30;20.10
728;DHT22;347;48.780;9.158;2023-03-01T08:18:16;5.40;19.60
728;DHT22;347;48.780;9.158;2023-03-01T08:20:42;5.40;19.10
728;DHT22;347;48.780;9.158;2023-03-01T08:23:08;5.40;19.80
728;DHT22;347;48.780;9.158;2023-03-01T08:25:33;5.30;19.80
728;DHT22;347;48.780;9.158;2023-03-01T08:27:59;5.20;20.00
728;DHT22;347;48.780;9.158;2023-03-01T08:30:25;5.30;19.90
728;DHT22;347;48.780;9.158;2023-03-01T08:32:50;5.00;20.60
728;DHT22;347;48.780;9.158;2023-03-01T08:35:16;4.90;20.80
728;DHT22;347;48.780;9.158;2023-03-01T08:37:42;4.80;20.60
728;DHT22;347;48.780;9.158;2023-03-01T08:40:08;4.70;20.80
728;DHT22;347;48.780;9.158;2023-03-01T08:42:36;4.60;21.40
728;DHT22;347;48.780;9.158;2023-03-01T08:45:03;4.80;20.70
728;DHT22;347;48.780;9.158;2023-03-01T08:47:29;5.00;20.80
728;DHT22;347;48.780;9.158;2023-03-01T08:49:54;5.30;20.30
728;DHT22;347;48.780;9.158;2023-03-01T08:52:20;5.40;19.70
728;DHT22;347;48.780;9.158;2023-03-01T08:54:49;5.20;20.60
728;DHT22;347;48.780;9.158;2023-03-01T08:57:15;5.20;20.30
728;DHT22;347;48.780;9.158;2023-03-01T08:59:40;5.20;20.50
728;DHT22;347;48.780;9.158;2023-03-01T09:02:12;5.40;19.90
728;DHT22;347;48.780;9.158;2023-03-01T09:04:38;5.50;19.80
728;DHT22;347;48.780;9.158;2023-03-01T09:07:04;5.70;19.40
728;DHT22;347;48.780;9.158;2023-03-01T09:09:29;5.80;18.80
728;DHT22;347;48.780;9.158;2023-03-01T09:11:55;5.90;18.70
728;DHT22;347;48.780;9.158;2023-03-01T09:14:21;5.90;18.80
728;DHT22;347;48.780;9.158;2023-03-01T09:16:46;5.80;19.10
728;DHT22;347;48.780;9.158;2023-03-01T09:19:13;5.70;19.40
728;DHT22;347;48.780;9.158;2023-03-01T09:21:38;5.70;19.70
728;DHT22;347;48.780;9.158;2023-03-01T09:24:04;5.70;19.00
728;DHT22;347;48.780;9.158;2023-03-01T09:26:30;5.70;19.20
728;DHT22;347;48.780;9.158;2023-03-01T09:28:56;5.90;19.10
728;DHT22;347;48.780;9.158;2023-03-01T09:31:23;6.00;19.40
728;DHT22;347;48.780;9.158;2023-03-01T09:33:51;6.20;18.30
728;DHT22;347;48.780;9.158;2023-03-01T09:36:20;6.40;17.90
728;DHT22;347;48.780;9.158;2023-03-01T09:38:47;6.50;17.60
728;DHT22;347;48.780;9.158;2023-03-01T09:41:45;6.30;18.00
728;DHT22;347;48.780;9.158;2023-03-01T09:46:42;6.80;17.50
728;DHT22;347;48.780;9.158;2023-03-01T09:49:24;7.00;17.00
728;DHT22;347;48.780;9.158;2023-03-01T09:52:34;7.00;16.70
728;DHT22;347;48.780;9.158;2023-03-01T09:55:08;7.10;16.90
728;DHT22;347;48.780;9.158;2023-03-01T09:57:50;7.00;16.80
728;DHT22;347;48.780;9.158;2023-03-01T10:00:28;6.90;16.90
728;DHT22;347;48.780;9.158;2023-03-01T10:03:23;6.80;17.10
728;DHT22;347;48.780;9.158;2023-03-01T10:06:19;6.70;17.50
728;DHT22;347;48.780;9.158;2023-03-01T10:11:35;6.80;16.90
728;DHT22;347;48.780;9.158;2023-03-01T10:14:05;6.90;17.00
728;DHT22;347;48.780;9.158;2023-03-01T10:19:26;6.80;17.00
728;DHT22;347;48.780;9.158;2023-03-01T10:21:53;6.70;17.30
728;DHT22;347;48.780;9.158;2023-03-01T10:24:20;6.40;17.30
728;DHT22;347;48.780;9.158;2023-03-01T10:27:22;6.40;17.80
728;DHT22;347;48.780;9.158;2023-03-01T10:30:19;6.60;17.30
728;DHT22;347;48.780;9.158;2023-03-01T10:32:47;6.80;17.00
728;DHT22;347;48.780;9.158;2023-03-01T10:35:17;6.80;16.90
728;DHT22;347;48.780;9.158;2023-03-01T10:40:30;7.10;16.40
728;DHT22;347;48.780;9.158;2023-03-01T10:42:58;7.10;16.30
728;DHT22;347;48.780;9.158;2023-03-01T10:45:37;7.20;16.10
728;DHT22;347;48.780;9.158;2023-03-01T10:48:12;7.10;16.60
728;DHT22;347;48.780;9.158;2023-03-01T10:50:43;7.00;16.50
728;DHT22;347;48.780;9.158;2023-03-01T10:56:00;7.30;16.50
728;DHT22;347;48.780;9.158;2023-03-01T10:58:26;7.60;16.10
728;DHT22;347;48.780;9.158;2023-03-01T11:08:46;7.70;15.40
728;DHT22;347;48.780;9.158;2023-03-01T11:11:14;7.70;15.50
728;DHT22;347;48.780;9.158;2023-03-01T11:14:23;8.00;14.80
728;DHT22;347;48.780;9.158;2023-03-01T11:17:06;7.90;14.90
728;DHT22;347;48.780;9.158;2023-03-01T11:19:37;7.80;15.30
728;DHT22;347;48.780;9.158;2023-03-01T11:22:07;7.90;15.50
728;DHT22;347;48.780;9.158;2023-03-01T11:24:46;8.00;14.80
728;DHT22;347;48.780;9.158;2023-03-01T11:27:20;8.10;14.80
728;DHT22;347;48.780;9.158;2023-03-01T11:30:03;7.90;14.90
728;DHT22;347;48.780;9.158;2023-03-01T11:32:36;8.10;14.40
728;DHT22;347;48.780;9.158;2023-03-01T11:35:09;8.30;14.50
728;DHT22;347;48.780;9.158;2023-03-01T11:40:40;8.40;14.60
728;DHT22;347;48.780;9.158;2023-03-01T11:50:54;8.50;14.70
728;DHT22;347;48.780;9.158;2023-03-01T11:53:33;8.50;14.70
728;DHT22;347;48.780;9.158;2023-03-01T11:56:35;8.30;14.60
728;DHT22;347;48.780;9.158;2023-03-01T11:59:07;8.40;14.60
728;DHT22;347;48.780;9.158;2023-03-01T12:29:42;8.90;13.40
728;DHT22;347;48.780;9.158;2023-03-01T12:43:57;8.80;15.10
728;DHT22;347;48.780;9.158;2023-03-01T12:49:14;9.00;14.70
728;DHT22;347;48.780;9.158;2023-03-01T12:51:48;9.10;14.10
728;DHT22;347;48.780;9.158;2023-03-01T12:54:20;9.10;13.90
728;DHT22;347;48.780;9.158;2023-03-01T12:56:49;9.10;14.10
728;DHT22;347;48.780;9.158;2023-03-01T13:01:54;9.00;14.00
728;DHT22;347;48.780;9.158;2023-03-01T13:33:46;9.90;13.00
728;DHT22;347;48.780;9.158;2023-03-01T13:41:54;10.10;11.80
728;DHT22;347;48.780;9.158;2023-03-01T13:49:47;9.90;12.60
728;DHT22;347;48.780;9.158;2023-03-01T13:52:43;10.00;12.90
728;DHT22;347;48.780;9.158;2023-03-01T13:58:02;9.90;12.60
728;DHT22;347;48.780;9.158;2023-03-01T14:00:35;9.90;12.80
728;DHT22;347;48.780;9.158;2023-03-01T14:03:18;9.90;12.90
728;DHT22;347;48.780;9.158;2023-03-01T14:08:27;9.60;13.30
728;DHT22;347;48.780;9.158;2023-03-01T14:17:14;9.70;13.30
728;DHT22;347;48.780;9.158;2023-03-01T14:19:43;9.60;13.40
728;DHT22;347;48.780;9.158;2023-03-01T14:22:23;9.70;13.20
728;DHT22;347;48.780;9.158;2023-03-01T14:24:52;9.60;13.40
728;DHT22;347;48.780;9.158;2023-03-01T14:27:19;9.50;13.60
728;DHT22;347;48.780;9.158;2023-03-01T14:29:55;9.60;13.70
728;DHT22;347;48.780;9.158;2023-03-01T14:32:25;9.60;13.50
728;DHT22;347;48.780;9.158;2023-03-01T14:34:51;9.60;13.50
728;DHT22;347;48.780;9.158;2023-03-01T14:39:54;9.60;13.90
728;DHT22;347;48.780;9.158;2023-03-01T14:42:22;9.60;13.70
728;DHT22;347;48.780;9.158;2023-03-01T14:44:51;9.60;13.90
728;DHT22;347;48.780;9.158;2023-03-01T14:47:30;9.60;14.10
728;DHT22;347;48.780;9.158;2023-03-01T14:50:09;9.60;13.90
728;DHT22;347;48.780;9.158;2023-03-01T14:52:42;9.60;13.80
728;DHT22;347;48.780;9.158;2023-03-01T14:55:34;9.50;13.90
728;DHT22;347;48.780;9.158;2023-03-01T14:58:04;9.50;14.20
728;DHT22;347;48.780;9.158;2023-03-01T15:00:32;9.50;14.30
728;DHT22;347;48.780;9.158;2023-03-01T15:03:14;9.50;14.10
728;DHT22;347;48.780;9.158;2023-03-01T15:05:43;9.50;15.00
728;DHT22;347;48.780;9.158;2023-03-01T15:08:17;9.50;14.20
728;DHT22;347;48.780;9.158;2023-03-01T15:11:01;9.50;14.20
728;DHT22;347;48.780;9.158;2023-03-01T15:13:31;9.60;14.50
728;DHT22;347;48.780;9.158;2023-03-01T15:16:04;9.50;14.40
728;DHT22;347;48.780;9.158;2023-03-01T15:18:31;9.50;14.60
728;DHT22;347;48.780;9.158;2023-03-01T15:21:09;9.40;14.30
728;DHT22;347;48.780;9.158;2023-03-01T15:23:40;9.50;14.30
728;DHT22;347;48.780;9.158;2023-03-01T15:26:16;9.40;14.50
728;DHT22;347;48.780;9.158;2023-03-01T15:28:50;9.40;14.40
728;DHT22;347;48.780;9.158;2023-03-01T15:31:42;9.40;14.50
728;DHT22;347;48.780;9.158;2023-03-01T15:34:39;9.50;14.50
728;DHT22;347;48.780;9.158;2023-03-01T15:37:33;9.40;14.30
728;DHT22;347;48.780;9.158;2023-03-01T15:39:54;9.50;14.80
728;DHT22;347;48.780;9.158;2023-03-01T15:47:41;9.70;14.00
728;DHT22;347;48.780;9.158;2023-03-01T15:50:26;9.60;14.00
728;DHT22;347;48.780;9.158;2023-03-01T15:52:52;9.60;14.40
728;DHT22;347;48.780;9.158;2023-03-01T15:55:24;9.60;14.70
728;DHT22;347;48.780;9.158;2023-03-01T16:00:30;9.70;13.60
728;DHT22;347;48.780;9.158;2023-03-01T16:02:55;9.60;13.50
728;DHT22;347;48.780;9.158;2023-03-01T16:05:33;9.70;13.40
728;DHT22;347;48.780;9.158;2023-03-01T16:08:00;9.70;13.40
728;DHT22;347;48.780;9.158;2023-03-01T16:10:26;9.70;13.40
728;DHT22;347;48.780;9.158;2023-03-01T16:12:52;9.60;13.40
728;DHT22;347;48.780;9.158;2023-03-01T16:15:24;9.60;13.60
728;DHT22;347;48.780;9.158;2023-03-01T16:17:51;9.50;13.60
728;DHT22;347;48.780;9.158;2023-03-01T16:20:18;9.50;13.40
728;DHT22;347;48.780;9.158;2023-03-01T16:22:44;9.50;13.70
728;DHT22;347;48.780;9.158;2023-03-01T16:25:12;9.50;14.00
728;DHT22;347;48.780;9.158;2023-03-01T16:27:38;9.50;13.50
728;DHT22;347;48.780;9.158;2023-03-01T16:30:07;9.50;13.80
728;DHT22;347;48.780;9.158;2023-03-01T16:32:37;9.60;13.90
728;DHT22;347;48.780;9.158;2023-03-01T16:35:02;9.60;13.70
728;DHT22;347;48.780;9.158;2023-03-01T16:37:32;9.60;13.60
728;DHT22;347;48.780;9.158;2023-03-01T16:39:58;9.70;13.40
728;DHT22;347;48.780;9.158;2023-03-01T16:42:23;9.70;13.30
728;DHT22;347;48.780;9.158;2023-03-01T16:44:54;9.60;13.60
728;DHT22;347;48.780;9.158;2023-03-01T16:47:20;9.60;13.60
728;DHT22;347;48.780;9.158;2023-03-01T16:49:52;9.60;13.90
728;DHT22;347;48.780;9.158;2023-03-01T16:52:18;9.60;13.70
728;DHT22;347;48.780;9.158;2023-03-01T16:54:44;9.60;13.80
728;DHT22;347;48.780;9.158;2023-03-01T16:57:10;9.60;13.50
728;DHT22;347;48.780;9.158;2023-03-01T16:59:35;9.60;13.50
728;DHT22;347;48.780;9.158;2023-03-01T17:02:03;9.70;13.60
728;DHT22;347;48.780;9.158;2023-03-01T17:04:28;9.70;13.50
728;DHT22;347;48.780;9.158;2023-03-01T17:06:54;9.70;13.40
728;DHT22;347;48.780;9.158;2023-03-01T17:09:19;9.70;13.60
728;DHT22;347;48.780;9.158;2023-03-01T17:11:48;9.70;13.50
728;DHT22;347;48.780;9.158;2023-03-01T17:14:13;9.70;13.60
728;DHT22;347;48.780;9.158;2023-03-01T17:16:40;9.70;14.50
728;DHT22;347;48.780;9.158;2023-03-01T17:19:06;9.60;13.90
728;DHT22;347;48.780;9.158;2023-03-01T17:21:32;9.60;13.70
728;DHT22;347;48.780;9.158;2023-03-01T17:23:58;9.60;13.50
728;DHT22;347;48.780;9.158;2023-03-01T17:26:24;9.60;13.60
728;DHT22;347;48.780;9.158;2023-03-01T17:28:50;9.70;13.30
728;DHT22;347;48.780;9.158;2023-03-01T17:31:18;9.60;13.40
728;DHT22;347;48.780;9.158;2023-03-01T17:33:44;9.60;13.70
728;DHT22;347;48.780;9.158;2023-03-01T17:36:10;9.60;13.60
728;DHT22;347;48.780;9.158;2023-03-01T17:38:36;9.60;13.50
728;DHT22;347;48.780;9.158;2023-03-01T17:41:02;9.50;13.50
728;DHT22;347;48.780;9.158;2023-03-01T17:43:29;9.50;13.60
728;DHT22;347;48.780;9.158;2023-03-01T17:45:56;9.50;13.70
728;DHT22;347;48.780;9.158;2023-03-01T17:48:22;9.50;13.60
728;DHT22;347;48.780;9.158;2023-03-01T17:50:47;9.50;13.90
728;DHT22;347;48.780;9.158;2023-03-01T17:53:13;9.50;13.70
728;DHT22;347;48.780;9.158;2023-03-01T17:55:41;9.50;13.80
728;DHT22;347;48.780;9.158;2023-03-01T17:58:09;9.40;14.00
728;DHT22;347;48.780;9.158;2023-03-01T18:00:36;9.50;13.80
728;DHT22;347;48.780;9.158;2023-03-01T18:03:02;9.50;14.00
728;DHT22;347;48.780;9.158;2023-03-01T18:05:32;9.50;14.40
728;DHT22;347;48.780;9.158;2023-03-01T18:07:58;9.50;13.80
728;DHT22;347;48.780;9.158;2023-03-01T18:10:23;9.60;13.70
728;DHT22;347;48.780;9.158;2023-03-01T18:12:50;9.50;13.90
728;DHT22;347;48.780;9.158;2023-03-01T18:15:16;9.50;13.80
728;DHT22;347;48.780;9.158;2023-03-01T18:17:42;9.50;13.90
728;DHT22;347;48.780;9.158;2023-03-01T18:20:08;9.50;13.80
728;DHT22;347;48.780;9.158;2023-03-01T18:22:36;9.50;13.60
728;DHT22;347;48.780;9.158;2023-03-01T18:25:03;9.50;13.90
728;DHT22;347;48.780;9.158;2023-03-01T18:27:29;9.30;14.20
728;DHT22;347;48.780;9.158;2023-03-01T18:29:55;9.20;14.60
728;DHT22;347;48.780;9.158;2023-03-01T18:32:22;9.20;15.10
728;DHT22;347;48.780;9.158;2023-03-01T18:34:48;9.10;14.60
728;DHT22;347;48.780;9.158;2023-03-01T18:37:14;9.20;14.50
728;DHT22;347;48.780;9.158;2023-03-01T18:39:40;9.20;14.20
728;DHT22;347;48.780;9.158;2023-03-01T18:42:06;9.30;14.40
728;DHT22;347;48.780;9.158;2023-03-01T18:44:32;9.10;15.60
728;DHT22;347;48.780;9.158;2023-03-01T18:46:57;9.10;15.10
728;DHT22;347;48.780;9.158;2023-03-01T18:49:24;9.10;15.10
728;DHT22;347;48.780;9.158;2023-03-01T18:51:51;9.10;15.10
728;DHT22;347;48.780;9.158;2023-03-01T18:54:17;9.10;15.10
728;DHT22;347;48.780;9.158;2023-03-01T18:56:43;9.10;15.10
728;DHT22;347;48.780;9.158;2023-03-01T18:59:10;9.10;15.10
728;DHT22;347;48.780;9.158;2023-03-01T19:01:36;9.20;14.80
728;DHT22;347;48.780;9.158;2023-03-01T19:04:01;9.20;14.60
728;DHT22;347;48.780;9.158;2023-03-01T19:06:29;9.20;15.20
728;DHT22;347;48.780;9.158;2023-03-01T19:08:56;9.20;15.00
728;DHT22;347;48.780;9.158;2023-03-01T19:11:21;9.20;15.00
728;DHT22;347;48.780;9.158;2023-03-01T19:13:51;9.20;14.60
728;DHT22;347;48.780;9.158;2023-03-01T19:16:20;9.20;15.10
728;DHT22;347;48.780;9.158;2023-03-01T19:18:47;9.20;15.10
728;DHT22;347;48.780;9.158;2023-03-01T19:21:21;9.10;15.10
728;DHT22;347;48.780;9.158;2023-03-01T19:23:48;9.10;15.10
728;DHT22;347;48.780;9.158;2023-03-01T19:26:16;9.00;15.00
728;DHT22;347;48.780;9.158;2023-03-01T19:28:43;9.00;15.00
728;DHT22;347;48.780;9.158;2023-03-01T19:31:21;9.00;15.00